createdAt,value
2017-01-28T00:00:14.322Z,77.11
2017-01-28T00:00:44.322Z,77.11
2017-01-28T00:01:14.363Z,77.11
2017-01-28T00:01:44.387Z,77.3
2017-01-28T00:02:14.404Z,76.82
2017-01-28T00:02:44.434Z,76.82
2017-01-28T00:03:14.461Z,76.64
2017-01-28T00:03:44.486Z,77.2
2017-01-28T00:04:14.365Z,76.82
2017-01-28T00:04:44.542Z,76.82
2017-01-28T00:05:14.567Z,76.73
2017-01-28T00:05:44.604Z,77.01
2017-01-28T00:06:14.624Z,77.11
2017-01-28T00:06:44.688Z,76.82
2017-01-28T00:07:14.680Z,77.11
2017-01-28T00:07:44.515Z,76.92
2017-01-28T00:08:14.733Z,76.92
2017-01-28T00:08:45.073Z,76.92
2017-01-28T00:09:14.788Z,77.01
2017-01-28T00:09:44.823Z,77.01
2017-01-28T00:10:14.851Z,77.11
2017-01-28T00:10:44.878Z,76.73
2017-01-28T00:11:14.900Z,76.64
2017-01-28T00:11:44.930Z,76.54
2017-01-28T00:12:14.956Z,76.35
2017-01-28T00:12:44.986Z,76.73
2017-01-28T00:13:15.010Z,76.45
2017-01-28T00:13:45.039Z,76.35
2017-01-28T00:14:15.067Z,76.64
2017-01-28T00:14:45.094Z,76.26
2017-01-28T00:15:15.122Z,76.07
2017-01-28T00:15:45.148Z,76.26
2017-01-28T00:16:15.184Z,76.07
2017-01-28T00:16:45.203Z,75.98
2017-01-28T00:17:15.233Z,76.35
2017-01-28T00:17:45.262Z,76.26
2017-01-28T00:18:15.287Z,76.17
2017-01-28T00:18:45.313Z,76.17
2017-01-28T00:19:15.346Z,76.26
2017-01-28T00:19:45.378Z,76.17
2017-01-28T00:20:15.398Z,76.17
2017-01-28T00:20:45.422Z,76.26
2017-01-28T00:21:15.455Z,76.17
2017-01-28T00:21:45.479Z,75.98
2017-01-28T00:22:15.367Z,75.98
2017-01-28T00:22:45.540Z,76.54
2017-01-28T00:23:15.564Z,76.35
2017-01-28T00:23:45.590Z,76.35
2017-01-28T00:24:15.867Z,76.26
2017-01-28T00:24:45.647Z,76.92
2017-01-28T00:25:15.677Z,77.01
2017-01-28T00:25:45.709Z,76.35
2017-01-28T00:26:15.726Z,76.73
2017-01-28T00:26:45.764Z,76.35
2017-01-28T00:27:15.781Z,76.45
2017-01-28T00:27:45.670Z,76.45
2017-01-28T00:28:15.841Z,76.64
2017-01-28T00:28:45.867Z,76.45
2017-01-28T00:29:15.902Z,76.92
2017-01-28T00:29:45.920Z,76.54
2017-01-28T00:30:15.948Z,76.92
2017-01-28T00:30:45.980Z,77.2
2017-01-28T00:31:16.009Z,76.92
2017-01-28T00:31:46.031Z,77.39
2017-01-28T00:32:16.056Z,77.49
2017-01-28T00:32:46.086Z,77.39
2017-01-28T00:33:16.113Z,77.58
2017-01-28T00:33:46.146Z,77.49
2017-01-28T00:34:16.167Z,77.58
2017-01-28T00:34:46.197Z,77.39
2017-01-28T00:35:16.224Z,77.86
2017-01-28T00:35:46.252Z,77.77
2017-01-28T00:36:16.280Z,77.77
2017-01-28T00:36:46.306Z,77.67
2017-01-28T00:37:16.332Z,77.67
2017-01-28T00:37:46.372Z,78.05
2017-01-28T00:38:16.391Z,77.49
2017-01-28T00:38:46.423Z,77.67
2017-01-28T00:39:16.447Z,77.86
2017-01-28T00:39:46.475Z,77.77
2017-01-28T00:40:16.498Z,78.05
2017-01-28T00:40:46.529Z,77.77
2017-01-28T00:41:16.556Z,77.86
2017-01-28T00:41:46.580Z,77.96
2017-01-28T00:42:16.611Z,78.15
2017-01-28T00:42:46.644Z,77.96
2017-01-28T00:43:16.667Z,78.15
2017-01-28T00:43:46.696Z,77.86
2017-01-28T00:44:16.723Z,77.96
2017-01-28T00:44:47.049Z,77.77
2017-01-28T00:45:16.773Z,77.49
2017-01-28T00:45:46.813Z,77.86
2017-01-28T00:46:16.684Z,77.86
2017-01-28T00:46:46.859Z,77.96
2017-01-28T00:47:16.885Z,78.52
2017-01-28T00:47:46.913Z,78.43
2017-01-28T00:48:16.945Z,78.43
2017-01-28T00:48:46.974Z,78.34
2017-01-28T00:49:17.000Z,78.24
2017-01-28T00:49:47.021Z,78.52
2017-01-28T00:50:17.053Z,78.62
2017-01-28T00:50:47.077Z,78.24
2017-01-28T00:51:17.113Z,77.86
2017-01-28T00:51:47.134Z,78.24
2017-01-28T00:52:17.160Z,78.24
2017-01-28T00:52:47.188Z,78.05
2017-01-28T00:53:17.213Z,77.77
2017-01-28T00:53:47.249Z,78.05
2017-01-28T00:54:17.274Z,77.86
2017-01-28T00:54:47.296Z,77.67
2017-01-28T00:55:17.333Z,77.86
2017-01-28T00:55:47.359Z,78.05
2017-01-28T00:56:17.380Z,77.49
2017-01-28T00:56:47.409Z,77.39
2017-01-28T00:57:17.436Z,77.39
2017-01-28T00:57:47.465Z,77.39
2017-01-28T00:58:17.490Z,77.49
2017-01-28T00:58:47.517Z,77.96
2017-01-28T00:59:17.549Z,77.58
2017-01-28T00:59:47.580Z,77.96
2017-01-28T01:00:17.922Z,77.96
2017-01-28T01:00:47.628Z,77.86
2017-01-28T01:01:17.655Z,77.77
2017-01-28T01:01:47.685Z,78.05
2017-01-28T01:02:17.710Z,78.15
2017-01-28T01:02:47.742Z,77.86
2017-01-28T01:03:17.769Z,77.77
2017-01-28T01:03:47.801Z,78.05
2017-01-28T01:04:17.829Z,78.05
2017-01-28T01:04:47.852Z,78.05
2017-01-28T01:05:17.878Z,77.96
2017-01-28T01:05:47.911Z,78.05
2017-01-28T01:06:17.935Z,77.96
2017-01-28T01:06:47.958Z,78.43
2017-01-28T01:07:17.989Z,78.34
2017-01-28T01:07:48.021Z,78.24
2017-01-28T01:08:18.043Z,78.71
2017-01-28T01:08:48.073Z,78.43
2017-01-28T01:09:18.102Z,78.9
2017-01-28T01:09:48.130Z,79
2017-01-28T01:10:18.153Z,79.09
2017-01-28T01:10:48.181Z,79
2017-01-28T01:11:18.215Z,79.37
2017-01-28T01:11:48.237Z,78.62
2017-01-28T01:12:18.119Z,78.9
2017-01-28T01:12:48.292Z,79.47
2017-01-28T01:13:18.319Z,79.28
2017-01-28T01:13:48.351Z,79.09
2017-01-28T01:14:18.371Z,79.09
2017-01-28T01:14:48.403Z,79.09
2017-01-28T01:15:18.429Z,79.47
2017-01-28T01:15:48.460Z,79.37
2017-01-28T01:16:18.484Z,79.37
2017-01-28T01:16:48.509Z,79.56
2017-01-28T01:17:18.533Z,79.56
2017-01-28T01:17:48.563Z,79.66
2017-01-28T01:18:18.598Z,79.47
2017-01-28T01:18:48.480Z,79.56
2017-01-28T01:19:18.651Z,79.19
2017-01-28T01:19:48.678Z,79.47
2017-01-28T01:20:18.701Z,79.47
2017-01-28T01:20:48.980Z,79.56
2017-01-28T01:21:18.764Z,79.47
2017-01-28T01:21:48.789Z,79.19
2017-01-28T01:22:18.819Z,78.9
2017-01-28T01:22:48.842Z,78.81
2017-01-28T01:23:18.872Z,78.81
2017-01-28T01:23:48.898Z,78.9
2017-01-28T01:24:18.923Z,79
2017-01-28T01:24:48.952Z,79
2017-01-28T01:25:18.982Z,79.75
2017-01-28T01:25:49.018Z,78.9
2017-01-28T01:26:19.033Z,79.09
2017-01-28T01:26:49.065Z,79.09
2017-01-28T01:27:19.088Z,78.81
2017-01-28T01:27:49.120Z,78.71
2017-01-28T01:28:19.149Z,78.52
2017-01-28T01:28:49.174Z,78.71
2017-01-28T01:29:19.199Z,78.71
2017-01-28T01:29:49.230Z,78.81
2017-01-28T01:30:19.256Z,78.24
2017-01-28T01:30:49.286Z,78.62
2017-01-28T01:31:19.314Z,78.05
2017-01-28T01:31:49.190Z,78.05
2017-01-28T01:32:19.382Z,77.86
2017-01-28T01:32:49.393Z,77.86
2017-01-28T01:33:19.421Z,77.49
2017-01-28T01:33:49.305Z,77.39
2017-01-28T01:34:19.471Z,77.49
2017-01-28T01:34:49.505Z,77.67
2017-01-28T01:35:19.382Z,77.58
2017-01-28T01:35:49.565Z,77.58
2017-01-28T01:36:19.693Z,77.49
2017-01-28T01:36:49.621Z,77.58
2017-01-28T01:37:19.642Z,77.49
2017-01-28T01:37:49.667Z,77.11
2017-01-28T01:38:19.698Z,77.3
2017-01-28T01:38:49.722Z,77.49
2017-01-28T01:39:19.752Z,77.39
2017-01-28T01:39:49.779Z,77.39
2017-01-28T01:40:19.805Z,77.39
2017-01-28T01:40:49.683Z,77.2
2017-01-28T01:41:19.857Z,77.39
2017-01-28T01:41:49.888Z,77.2
2017-01-28T01:42:19.913Z,77.3
2017-01-28T01:42:49.937Z,77.49
2017-01-28T01:43:19.968Z,77.49
2017-01-28T01:43:50.001Z,77.49
2017-01-28T01:44:20.022Z,77.39
2017-01-28T01:44:50.051Z,77.39
2017-01-28T01:45:20.083Z,77.49
2017-01-28T01:45:50.113Z,77.2
2017-01-28T01:46:20.132Z,77.49
2017-01-28T01:46:50.163Z,77.77
2017-01-28T01:47:20.189Z,77.96
2017-01-28T01:47:50.217Z,77.96
2017-01-28T01:48:20.240Z,78.15
2017-01-28T01:48:50.269Z,78.15
2017-01-28T01:49:20.302Z,78.15
2017-01-28T01:49:50.324Z,78.24
2017-01-28T01:50:20.350Z,78.15
2017-01-28T01:50:50.379Z,78.05
2017-01-28T01:51:20.405Z,77.96
2017-01-28T01:51:50.433Z,78.52
2017-01-28T01:52:20.462Z,78.15
2017-01-28T01:52:50.487Z,78.15
2017-01-28T01:53:20.516Z,78.05
2017-01-28T01:53:50.540Z,78.62
2017-01-28T01:54:20.572Z,78.24
2017-01-28T01:54:50.597Z,78.62
2017-01-28T01:55:20.626Z,78.05
2017-01-28T01:55:50.656Z,78.62
2017-01-28T01:56:20.682Z,78.71
2017-01-28T01:56:51.008Z,78.52
2017-01-28T01:57:20.741Z,78.71
2017-01-28T01:57:50.758Z,78.81
2017-01-28T01:58:20.793Z,78.81
2017-01-28T01:58:50.816Z,79.09
2017-01-28T01:59:20.700Z,79
2017-01-28T01:59:50.870Z,79.09
2017-01-28T02:00:20.897Z,79
2017-01-28T02:00:50.779Z,79
2017-01-28T02:01:20.955Z,79.09
2017-01-28T02:01:50.981Z,79.09
2017-01-28T02:02:21.015Z,79
2017-01-28T02:02:51.033Z,79
2017-01-28T02:03:21.065Z,79.19
2017-01-28T02:03:51.087Z,79.09
2017-01-28T02:04:21.151Z,79
2017-01-28T02:04:51.142Z,79.19
2017-01-28T02:05:21.173Z,79.19
2017-01-28T02:05:51.197Z,79
2017-01-28T02:06:21.230Z,79.09
2017-01-28T02:06:51.252Z,79.09
2017-01-28T02:07:21.280Z,78.9
2017-01-28T02:07:51.313Z,78.81
2017-01-28T02:08:21.337Z,78.9
2017-01-28T02:08:51.367Z,78.81
2017-01-28T02:09:21.395Z,78.81
2017-01-28T02:09:51.424Z,78.81
2017-01-28T02:10:21.448Z,78.81
2017-01-28T02:10:51.472Z,79.09
2017-01-28T02:11:21.500Z,79
2017-01-28T02:11:51.531Z,79.09
2017-01-28T02:12:21.561Z,78.52
2017-01-28T02:12:51.591Z,78.81
2017-01-28T02:13:21.616Z,78.52
2017-01-28T02:13:51.643Z,78.9
2017-01-28T02:14:21.669Z,78.05
2017-01-28T02:14:51.693Z,78.24
2017-01-28T02:15:21.724Z,77.96
2017-01-28T02:15:51.752Z,78.24
2017-01-28T02:16:21.783Z,78.05
2017-01-28T02:16:51.662Z,78.15
2017-01-28T02:17:22.136Z,77.67
2017-01-28T02:17:51.870Z,77.49
2017-01-28T02:18:21.885Z,77.39
2017-01-28T02:18:51.916Z,77.39
2017-01-28T02:19:21.941Z,77.3
2017-01-28T02:19:51.973Z,77.3
2017-01-28T02:20:22.002Z,77.39
2017-01-28T02:20:52.021Z,77.49
2017-01-28T02:21:22.050Z,77.49
2017-01-28T02:21:52.079Z,77.55
2017-01-28T02:22:22.352Z,77.58
2017-01-28T02:22:52.133Z,77.45
2017-01-28T02:23:22.164Z,77.64
2017-01-28T02:23:52.191Z,77.64
2017-01-28T02:24:22.243Z,77.64
2017-01-28T02:24:52.269Z,77.73
2017-01-28T02:25:22.270Z,77.45
2017-01-28T02:25:52.298Z,77.64
2017-01-28T02:26:22.326Z,77.73
2017-01-28T02:26:52.351Z,77.64
2017-01-28T02:27:22.384Z,77.45
2017-01-28T02:27:52.405Z,77.64
2017-01-28T02:28:22.433Z,77.45
2017-01-28T02:28:52.478Z,77.45
2017-01-28T02:29:22.486Z,77.64
2017-01-28T02:29:52.516Z,77.45
2017-01-28T02:30:22.541Z,77.55
2017-01-28T02:30:52.572Z,77.55
2017-01-28T02:31:22.598Z,77.45
2017-01-28T02:31:52.632Z,77.64
2017-01-28T02:32:22.655Z,77.45
2017-01-28T02:32:52.532Z,77.64
2017-01-28T02:33:22.710Z,77.55
2017-01-28T02:33:52.737Z,77.36
2017-01-28T02:34:22.766Z,77.64
2017-01-28T02:34:52.794Z,77.64
2017-01-28T02:35:22.820Z,77.45
2017-01-28T02:35:52.848Z,77.45
2017-01-28T02:36:22.872Z,77.26
2017-01-28T02:36:52.902Z,77.45
2017-01-28T02:37:22.929Z,77.55
2017-01-28T02:37:53.253Z,77.26
2017-01-28T02:38:22.978Z,77.36
2017-01-28T02:38:53.005Z,77.64
2017-01-28T02:39:23.037Z,77.55
2017-01-28T02:39:53.065Z,77.73
2017-01-28T02:40:23.093Z,77.64
2017-01-28T02:40:53.111Z,77.83
2017-01-28T02:41:23.146Z,77.83
2017-01-28T02:41:53.172Z,77.73
2017-01-28T02:42:23.204Z,78.11
2017-01-28T02:42:53.527Z,77.92
2017-01-28T02:43:23.268Z,78.2
2017-01-28T02:43:53.286Z,78.2
2017-01-28T02:44:23.306Z,78.11
2017-01-28T02:44:53.337Z,78.11
2017-01-28T02:45:23.362Z,78.77
2017-01-28T02:45:53.398Z,78.67
2017-01-28T02:46:23.419Z,78.49
2017-01-28T02:46:53.453Z,78.49
2017-01-28T02:47:23.476Z,78.49
2017-01-28T02:47:53.526Z,78.58
2017-01-28T02:48:23.525Z,78.58
2017-01-28T02:48:53.556Z,78.77
2017-01-28T02:49:23.585Z,78.86
2017-01-28T02:49:53.614Z,79.05
2017-01-28T02:50:23.642Z,78.77
2017-01-28T02:50:53.672Z,79.05
2017-01-28T02:51:23.543Z,78.77
2017-01-28T02:51:53.717Z,78.96
2017-01-28T02:52:23.599Z,79.14
2017-01-28T02:52:53.777Z,78.86
2017-01-28T02:53:23.804Z,79.37
2017-01-28T02:53:53.830Z,79.56
2017-01-28T02:54:23.853Z,79.05
2017-01-28T02:54:53.884Z,78.62
2017-01-28T02:55:23.916Z,79
2017-01-28T02:55:53.941Z,79
2017-01-28T02:56:23.992Z,78.71
2017-01-28T02:56:53.996Z,79.37
2017-01-28T02:57:24.027Z,78.71
2017-01-28T02:57:54.050Z,79.37
2017-01-28T02:58:24.076Z,78.81
2017-01-28T02:58:54.105Z,78.81
2017-01-28T02:59:24.133Z,79.37
2017-01-28T02:59:54.156Z,79.47
2017-01-28T03:00:24.185Z,79.47
2017-01-28T03:00:54.214Z,78.62
2017-01-28T03:01:24.241Z,79.37
2017-01-28T03:01:54.266Z,78.71
2017-01-28T03:02:24.299Z,79.37
2017-01-28T03:02:54.323Z,79.09
2017-01-28T03:03:24.650Z,79
2017-01-28T03:03:54.385Z,79.19
2017-01-28T03:04:24.406Z,79.09
2017-01-28T03:04:54.439Z,79
2017-01-28T03:05:24.459Z,79.19
2017-01-28T03:05:54.495Z,79
2017-01-28T03:06:24.520Z,79
2017-01-28T03:06:54.553Z,78.9
2017-01-28T03:07:24.577Z,78.52
2017-01-28T03:07:54.605Z,78.71
2017-01-28T03:08:24.881Z,78.62
2017-01-28T03:08:54.661Z,78.62
2017-01-28T03:09:24.683Z,78.71
2017-01-28T03:09:54.743Z,79
2017-01-28T03:10:24.739Z,79
2017-01-28T03:10:54.763Z,78.71
2017-01-28T03:11:24.797Z,78.9
2017-01-28T03:11:54.820Z,78.81
2017-01-28T03:12:24.850Z,78.71
2017-01-28T03:12:54.876Z,78.71
2017-01-28T03:13:24.906Z,78.71
2017-01-28T03:13:54.931Z,78.71
2017-01-28T03:14:24.965Z,78.9
2017-01-28T03:14:54.984Z,78.52
2017-01-28T03:15:25.016Z,78.9
2017-01-28T03:15:55.039Z,78.71
2017-01-28T03:16:25.068Z,78.34
2017-01-28T03:16:55.099Z,78.34
2017-01-28T03:17:25.124Z,78.34
2017-01-28T03:17:55.145Z,78.34
2017-01-28T03:18:25.186Z,78.81
2017-01-28T03:18:55.202Z,78.71
2017-01-28T03:19:25.231Z,78.71
2017-01-28T03:19:55.260Z,78.05
2017-01-28T03:20:25.287Z,78.15
2017-01-28T03:20:55.317Z,78.52
2017-01-28T03:21:25.355Z,78.62
2017-01-28T03:21:55.372Z,78.05
2017-01-28T03:22:25.401Z,77.96
2017-01-28T03:22:55.425Z,78.05
2017-01-28T03:23:25.467Z,78.15
2017-01-28T03:23:55.477Z,78.15
2017-01-28T03:24:25.508Z,77.96
2017-01-28T03:24:55.534Z,77.86
2017-01-28T03:25:25.563Z,77.77
2017-01-28T03:25:55.588Z,78.05
2017-01-28T03:26:25.623Z,78.34
2017-01-28T03:26:55.647Z,77.96
2017-01-28T03:27:25.674Z,78.15
2017-01-28T03:27:55.700Z,78.15
2017-01-28T03:28:25.729Z,78.24
2017-01-28T03:28:56.057Z,78.05
2017-01-28T03:29:25.779Z,78.62
2017-01-28T03:29:55.806Z,78.24
2017-01-28T03:30:25.837Z,78.62
2017-01-28T03:30:55.870Z,78.24
2017-01-28T03:31:25.892Z,78.24
2017-01-28T03:31:55.921Z,78.15
2017-01-28T03:32:25.947Z,78.15
2017-01-28T03:32:55.978Z,78.15
2017-01-28T03:33:26.007Z,78.43
2017-01-28T03:33:56.032Z,78.43
2017-01-28T03:34:26.062Z,78.05
2017-01-28T03:34:56.092Z,78.05
2017-01-28T03:35:26.112Z,78.24
2017-01-28T03:35:56.142Z,78.24
2017-01-28T03:36:26.166Z,77.96
2017-01-28T03:36:56.194Z,78.24
2017-01-28T03:37:26.223Z,78.05
2017-01-28T03:37:56.252Z,77.77
2017-01-28T03:38:26.279Z,77.58
2017-01-28T03:38:56.307Z,77.49
2017-01-28T03:39:26.364Z,77.39
2017-01-28T03:39:56.357Z,77.39
2017-01-28T03:40:26.412Z,77.67
2017-01-28T03:40:56.426Z,77.3
2017-01-28T03:41:26.441Z,77.36
2017-01-28T03:41:56.469Z,76.89
2017-01-28T03:42:26.498Z,76.98
2017-01-28T03:42:56.522Z,77.07
2017-01-28T03:43:26.552Z,77.07
2017-01-28T03:43:56.582Z,77.26
2017-01-28T03:44:27.006Z,76.79
2017-01-28T03:44:56.630Z,76.79
2017-01-28T03:45:26.663Z,77.17
2017-01-28T03:45:56.689Z,76.6
2017-01-28T03:46:26.710Z,76.7
2017-01-28T03:46:56.744Z,76.6
2017-01-28T03:47:26.769Z,76.7
2017-01-28T03:47:56.791Z,76.89
2017-01-28T03:48:26.819Z,77.26
2017-01-28T03:48:56.855Z,76.79
2017-01-28T03:49:26.875Z,76.22
2017-01-28T03:49:56.903Z,76.79
2017-01-28T03:50:26.932Z,76.51
2017-01-28T03:50:56.961Z,76.51
2017-01-28T03:51:26.990Z,76.41
2017-01-28T03:51:57.014Z,76.32
2017-01-28T03:52:27.037Z,76.79
2017-01-28T03:52:57.066Z,76.6
2017-01-28T03:53:27.099Z,76.6
2017-01-28T03:53:57.124Z,76.79
2017-01-28T03:54:27.152Z,76.89
2017-01-28T03:54:57.181Z,76.7
2017-01-28T03:55:27.206Z,77.07
2017-01-28T03:55:57.231Z,77.17
2017-01-28T03:56:27.261Z,77.17
2017-01-28T03:56:57.286Z,77.64
2017-01-28T03:57:27.311Z,77.36
2017-01-28T03:57:57.343Z,77.83
2017-01-28T03:58:27.364Z,77.83
2017-01-28T03:58:57.397Z,78.11
2017-01-28T03:59:27.418Z,78.02
2017-01-28T03:59:57.447Z,78.49
2017-01-28T04:00:27.476Z,78.3
2017-01-28T04:00:57.506Z,78.77
2017-01-28T04:01:27.386Z,78.77
2017-01-28T04:01:57.557Z,78.67
2017-01-28T04:02:27.584Z,78.49
2017-01-28T04:02:57.610Z,78.58
2017-01-28T04:03:27.633Z,78.3
2017-01-28T04:03:57.666Z,78.49
2017-01-28T04:04:27.696Z,78.58
2017-01-28T04:04:58.021Z,79.14
2017-01-28T04:05:27.743Z,78.96
2017-01-28T04:05:57.774Z,78.77
2017-01-28T04:06:27.805Z,78.96
2017-01-28T04:06:57.831Z,78.96
2017-01-28T04:07:27.865Z,79.05
2017-01-28T04:07:57.741Z,79.05
2017-01-28T04:08:27.906Z,79.05
2017-01-28T04:08:57.943Z,78.96
2017-01-28T04:09:27.963Z,78.86
2017-01-28T04:09:57.992Z,78.96
2017-01-28T04:10:28.017Z,78.67
2017-01-28T04:10:58.048Z,78.39
2017-01-28T04:11:28.077Z,78.67
2017-01-28T04:11:58.103Z,78.67
2017-01-28T04:12:28.128Z,78.11
2017-01-28T04:12:58.157Z,78.2
2017-01-28T04:13:28.186Z,78.11
2017-01-28T04:13:58.209Z,78.02
2017-01-28T04:14:28.235Z,78.11
2017-01-28T04:14:58.263Z,77.83
2017-01-28T04:15:28.287Z,77.92
2017-01-28T04:15:58.319Z,77.36
2017-01-28T04:16:28.356Z,77.26
2017-01-28T04:16:58.386Z,77.26
2017-01-28T04:17:28.406Z,77.55
2017-01-28T04:17:58.431Z,77.17
2017-01-28T04:18:28.457Z,77.26
2017-01-28T04:18:58.481Z,77.55
2017-01-28T04:19:28.511Z,77.55
2017-01-28T04:19:58.534Z,77.92
2017-01-28T04:20:28.868Z,77.73
2017-01-28T04:20:58.590Z,77.83
2017-01-28T04:21:28.620Z,77.55
2017-01-28T04:21:58.646Z,77.92
2017-01-28T04:22:28.680Z,77.73
2017-01-28T04:22:58.701Z,77.92
2017-01-28T04:23:28.729Z,77.73
2017-01-28T04:23:58.756Z,77.83
2017-01-28T04:24:28.783Z,77.73
2017-01-28T04:24:58.814Z,77.45
2017-01-28T04:25:28.838Z,78.02
2017-01-28T04:25:58.863Z,77.92
2017-01-28T04:26:28.894Z,77.83
2017-01-28T04:26:58.771Z,78.02
2017-01-28T04:27:28.951Z,78.2
2017-01-28T04:27:58.972Z,78.02
2017-01-28T04:28:29.004Z,78.11
2017-01-28T04:28:59.028Z,78.02
2017-01-28T04:29:29.055Z,78.11
2017-01-28T04:29:59.083Z,78.11
2017-01-28T04:30:28.960Z,78.11
2017-01-28T04:30:59.134Z,78.02
2017-01-28T04:31:29.161Z,78.11
2017-01-28T04:31:59.189Z,78.02
2017-01-28T04:32:29.215Z,78.02
2017-01-28T04:32:59.243Z,78.3
2017-01-28T04:33:29.270Z,78.02
2017-01-28T04:33:59.296Z,78.49
2017-01-28T04:34:29.323Z,78.39
2017-01-28T04:34:59.350Z,78.11
2017-01-28T04:35:29.376Z,78.58
2017-01-28T04:35:59.400Z,78.77
2017-01-28T04:36:29.431Z,78.77
2017-01-28T04:36:59.459Z,78.2
2017-01-28T04:37:29.488Z,78.39
2017-01-28T04:37:59.516Z,78.39
2017-01-28T04:38:29.544Z,78.58
2017-01-28T04:38:59.569Z,78.02
2017-01-28T04:39:29.596Z,78.11
2017-01-28T04:39:59.618Z,77.83
2017-01-28T04:40:29.650Z,78.02
2017-01-28T04:40:59.937Z,78.11
2017-01-28T04:41:29.708Z,77.45
2017-01-28T04:41:59.735Z,77.45
2017-01-28T04:42:29.763Z,77.92
2017-01-28T04:42:59.783Z,78.02
2017-01-28T04:43:29.812Z,77.92
2017-01-28T04:43:59.840Z,78.2
2017-01-28T04:44:29.866Z,78.2
2017-01-28T04:44:59.745Z,78.2
2017-01-28T04:45:29.928Z,77.83
2017-01-28T04:45:59.975Z,78.02
2017-01-28T04:46:29.971Z,77.92
2017-01-28T04:46:59.997Z,78.11
2017-01-28T04:47:30.031Z,77.45
2017-01-28T04:48:00.051Z,78.02
2017-01-28T04:48:30.083Z,77.83
2017-01-28T04:49:00.108Z,77.83
2017-01-28T04:49:30.133Z,77.73
2017-01-28T04:50:00.167Z,77.83
2017-01-28T04:50:30.191Z,77.73
2017-01-28T04:51:00.219Z,77.73
2017-01-28T04:51:30.267Z,77.92
2017-01-28T04:52:00.270Z,77.45
2017-01-28T04:52:30.296Z,77.64
2017-01-28T04:53:00.326Z,77.73
2017-01-28T04:53:30.355Z,78.02
2017-01-28T04:54:00.377Z,77.73
2017-01-28T04:54:30.403Z,77.73
2017-01-28T04:55:00.436Z,77.73
2017-01-28T04:55:30.457Z,78.02
2017-01-28T04:56:00.488Z,78.2
2017-01-28T04:56:30.765Z,78.11
2017-01-28T04:57:00.536Z,78.3
2017-01-28T04:57:30.572Z,79.05
2017-01-28T04:58:00.602Z,78.96
2017-01-28T04:58:30.618Z,78.86
2017-01-28T04:59:00.648Z,78.96
2017-01-28T04:59:30.679Z,78.86
2017-01-28T05:00:00.704Z,79.43
2017-01-28T05:00:30.725Z,79.14
2017-01-28T05:01:00.758Z,79.43
2017-01-28T05:01:30.889Z,79.71
2017-01-28T05:02:00.809Z,79.52
2017-01-28T05:02:30.836Z,79.05
2017-01-28T05:03:00.865Z,79.71
2017-01-28T05:03:30.895Z,79.71
2017-01-28T05:04:00.919Z,79.24
2017-01-28T05:04:30.947Z,79.24
2017-01-28T05:05:00.977Z,79.05
2017-01-28T05:05:31.000Z,79.52
2017-01-28T05:06:01.030Z,79.52
2017-01-28T05:06:30.917Z,79.71
2017-01-28T05:07:01.081Z,79.33
2017-01-28T05:07:31.113Z,79.43
2017-01-28T05:08:00.986Z,79.71
2017-01-28T05:08:31.160Z,79.14
2017-01-28T05:09:01.189Z,79.24
2017-01-28T05:09:31.220Z,79.24
2017-01-28T05:10:01.252Z,79.61
2017-01-28T05:10:31.272Z,79.52
2017-01-28T05:11:01.304Z,79.61
2017-01-28T05:11:31.325Z,79.52
2017-01-28T05:12:01.353Z,79.24
2017-01-28T05:12:31.387Z,79.05
2017-01-28T05:13:01.407Z,79.43
2017-01-28T05:13:31.429Z,79.24
2017-01-28T05:14:01.462Z,79.61
2017-01-28T05:14:31.487Z,79.33
2017-01-28T05:15:01.519Z,79.05
2017-01-28T05:15:31.540Z,79.52
2017-01-28T05:16:01.573Z,79.33
2017-01-28T05:16:31.596Z,79.33
2017-01-28T05:17:01.625Z,78.96
2017-01-28T05:17:31.652Z,78.86
2017-01-28T05:18:01.728Z,78.96
2017-01-28T05:18:31.705Z,78.77
2017-01-28T05:19:02.035Z,78.77
2017-01-28T05:19:31.757Z,78.96
2017-01-28T05:20:01.796Z,79.33
2017-01-28T05:20:31.813Z,78.96
2017-01-28T05:21:01.847Z,79.05
2017-01-28T05:21:31.869Z,79.05
2017-01-28T05:22:02.144Z,79.05
2017-01-28T05:22:31.918Z,79.05
2017-01-28T05:23:01.948Z,79.05
2017-01-28T05:23:31.973Z,78.96
2017-01-28T05:24:02.102Z,79.05
2017-01-28T05:24:32.025Z,79.43
2017-01-28T05:25:01.967Z,78.58
2017-01-28T05:25:32.082Z,79.33
2017-01-28T05:26:02.108Z,78.96
2017-01-28T05:26:32.141Z,78.77
2017-01-28T05:27:02.418Z,78.77
2017-01-28T05:27:32.190Z,78.67
2017-01-28T05:28:02.225Z,78.86
2017-01-28T05:28:32.245Z,78.86
2017-01-28T05:29:02.272Z,78.96
2017-01-28T05:29:32.298Z,78.86
2017-01-28T05:30:02.641Z,78.77
2017-01-28T05:30:32.357Z,79.05
2017-01-28T05:31:02.387Z,79.05
2017-01-28T05:31:32.413Z,79.05
2017-01-28T05:32:02.994Z,78.96
2017-01-28T05:32:32.466Z,78.67
2017-01-28T05:33:02.686Z,78.58
2017-01-28T05:33:32.515Z,78.58
2017-01-28T05:34:02.548Z,78.58
2017-01-28T05:34:32.571Z,78.77
2017-01-28T05:35:02.596Z,78.58
2017-01-28T05:35:32.624Z,79.05
2017-01-28T05:36:02.648Z,78.67
2017-01-28T05:36:32.677Z,78.58
2017-01-28T05:37:02.704Z,78.58
2017-01-28T05:37:32.730Z,78.58
2017-01-28T05:38:02.864Z,78.58
2017-01-28T05:38:32.784Z,78.77
2017-01-28T05:39:02.962Z,78.67
2017-01-28T05:39:32.834Z,78.58
2017-01-28T05:40:02.864Z,78.3
2017-01-28T05:40:32.889Z,78.39
2017-01-28T05:41:03.068Z,78.58
2017-01-28T05:41:32.945Z,78.58
2017-01-28T05:42:02.974Z,78.58
2017-01-28T05:42:32.996Z,78.49
2017-01-28T05:43:03.385Z,78.58
2017-01-28T05:43:33.051Z,78.49
2017-01-28T05:44:03.092Z,78.49
2017-01-28T05:44:33.107Z,78.77
2017-01-28T05:45:03.194Z,78.67
2017-01-28T05:45:33.159Z,78.58
2017-01-28T05:46:03.188Z,78.49
2017-01-28T05:46:33.209Z,78.67
2017-01-28T05:47:03.243Z,78.77
2017-01-28T05:47:33.275Z,78.58
2017-01-28T05:48:03.293Z,78.58
2017-01-28T05:48:33.323Z,78.77
2017-01-28T05:49:03.350Z,78.77
2017-01-28T05:49:33.376Z,78.77
2017-01-28T05:50:03.405Z,78.77
2017-01-28T05:50:33.430Z,78.77
2017-01-28T05:51:03.454Z,78.86
2017-01-28T05:51:33.487Z,78.73
2017-01-28T05:52:03.513Z,78.49
2017-01-28T05:52:33.789Z,78.54
2017-01-28T05:53:03.562Z,78.86
2017-01-28T05:53:33.592Z,79.01
2017-01-28T05:54:03.617Z,79.01
2017-01-28T05:54:33.641Z,78.92
2017-01-28T05:55:03.686Z,79.1
2017-01-28T05:55:33.707Z,78.92
2017-01-28T05:56:03.727Z,79.01
2017-01-28T05:56:33.753Z,78.82
2017-01-28T05:57:03.781Z,79.2
2017-01-28T05:57:34.057Z,79.39
2017-01-28T05:58:03.831Z,79.2
2017-01-28T05:58:33.858Z,79.1
2017-01-28T05:59:03.886Z,79.2
2017-01-28T05:59:33.915Z,79.58
2017-01-28T06:00:03.941Z,80.05
2017-01-28T06:00:33.969Z,79.95
2017-01-28T06:01:03.995Z,79.67
2017-01-28T06:01:34.020Z,79.48
2017-01-28T06:02:04.054Z,80.46
2017-01-28T06:02:34.077Z,80.24
2017-01-28T06:03:04.103Z,79.67
2017-01-28T06:03:34.126Z,80.14
2017-01-28T06:04:04.156Z,80.14
2017-01-28T06:04:34.179Z,80.05
2017-01-28T06:05:04.065Z,80.05
2017-01-28T06:05:34.234Z,80.24
2017-01-28T06:06:04.285Z,80.61
2017-01-28T06:06:34.286Z,80.61
2017-01-28T06:07:04.318Z,80.33
2017-01-28T06:07:34.343Z,80.42
2017-01-28T06:08:04.368Z,80.42
2017-01-28T06:08:34.395Z,80.14
2017-01-28T06:09:04.422Z,80.33
2017-01-28T06:09:34.447Z,80.46
2017-01-28T06:10:04.474Z,80.33
2017-01-28T06:10:34.501Z,80.42
2017-01-28T06:11:04.534Z,80.52
2017-01-28T06:11:34.555Z,80.05
2017-01-28T06:12:04.585Z,80.08
2017-01-28T06:12:34.468Z,80.52
2017-01-28T06:13:04.943Z,80.52
2017-01-28T06:13:34.662Z,80.27
2017-01-28T06:14:04.694Z,80.33
2017-01-28T06:14:34.718Z,80.65
2017-01-28T06:15:04.745Z,80.52
2017-01-28T06:15:34.768Z,80.05
2017-01-28T06:16:04.651Z,80.05
2017-01-28T06:16:34.821Z,79.99
2017-01-28T06:17:04.856Z,80.65
2017-01-28T06:17:34.880Z,80.65
2017-01-28T06:18:04.903Z,80.65
2017-01-28T06:18:34.935Z,80.27
2017-01-28T06:19:04.962Z,80.46
2017-01-28T06:19:34.981Z,80.65
2017-01-28T06:20:05.014Z,80.65
2017-01-28T06:20:35.035Z,81.12
2017-01-28T06:21:05.065Z,81.03
2017-01-28T06:21:35.096Z,81.22
2017-01-28T06:22:05.124Z,81.22
2017-01-28T06:22:35.157Z,81.03
2017-01-28T06:23:05.173Z,80.65
2017-01-28T06:23:35.197Z,80.18
2017-01-28T06:24:05.227Z,80.18
2017-01-28T06:24:35.249Z,80.56
2017-01-28T06:25:05.277Z,80.37
2017-01-28T06:25:35.309Z,80.65
2017-01-28T06:26:05.193Z,80.74
2017-01-28T06:26:35.361Z,80.37
2017-01-28T06:27:05.382Z,80.37
2017-01-28T06:27:35.420Z,80.74
2017-01-28T06:28:05.441Z,80.56
2017-01-28T06:28:35.469Z,80.08